Tiempo atmosférico en la estación meteorológica de Alicante/Alacant, Alacant/Alicante (81 m.)



Fecha
DESCASC
Temp. máxima en grados centígrados (hora)
DESCASC
Temp. mínima en grados centígrados (hora)
DESCASC
Temp. media en grados centígrados
DESCASC
Racha de viento máxima en m/sg (hora)
DESCASC
Velocidad máxima media en intervalos de 10 minutos(hora)
DESCASC
Precipitaciones diarias en mm
DESCASC
Precipitaciones de 00:00 a 06:00 en mm
DESCASC
Precipitaciones de 06:00 a 12:00 en mm
DESCASC
Precipitaciones de 12:00 a 18:00 en mm
DESCASC
Precipitaciones de 18:00 a 24:00 en mm
DESCASC
22-04-2019 18.5 (16:00) 11.9 (02:20) 15.2 8.61 (02:00) 4.44 (02:40) 15.4 14 0.2 1.2 0
21-04-2019 17.1 (13:10) 12.2 (20:30) 14.7 16.67 (21:50) 8.33 (21:30) 26.6 0 0 4.4 22.2
20-04-2019 15.3 (18:30) 13 (14:00) 14.2 18.89 (05:50) 9.72 (05:50) 49 23 13 13 0
19-04-2019 14.7 (12:40) 12.4 (19:20) 13.5 8.89 (23:20) 4.44 (23:20) 24 5.8 1.6 4.8 11.8
18-04-2019 19.1 (16:30) 14.2 (00:00) 16.7 9.72 (17:00) 5 (17:00) 0.6 0 0 0 0.6
17-04-2019 19.5 (15:20) 11.1 (00:00) 15.3 11.11 (18:50) 6.11 (17:40) 0 0 0 0 0
16-04-2019 19.8 (15:40) 12.4 (00:00) 16.1 8.06 (13:10) 4.72 (11:40) 0 0 0 0 0
15-04-2019 23.7 (16:00) 15.9 (00:00) 19.8 6.39 (15:40) 3.33 (09:30) 0 0 0 0 0
14-04-2019 29.9 (15:30) 11.7 (00:00) 20.8 11.11 (16:50) 6.11 (16:50) 0 0 0 0 0
13-04-2019 21.2 (16:40) 8.1 (00:00) 14.7 5.83 (14:50) 3.33 (13:20) 0 0 0 0 0
12-04-2019 19.1 (11:50) 9.6 (00:00) 14.4 8.61 (13:50) 4.44 (14:20) 0 0 0 0 0
11-04-2019 20.1 (12:50) 10.2 (00:00) 15.2 7.5 (16:40) 4.44 (15:50) 0 0 0 0 0
10-04-2019 21.5 (16:00) 11.6 (00:00) 16.6 12.22 (17:00) 5.83 (17:30) 0 0 0 0 0
09-04-2019 21.5 (17:10) 13.2 (00:00) 17.3 17.5 (18:30) 8.06 (18:30) 0 0 0 0 0
08-04-2019 23.2 (17:20) 13.4 (00:00) 18.3 9.72 (14:00) 4.17 (14:00) 0 0 0 0 0
07-04-2019 20.4 (15:50) 9.2 (00:00) 14.8 16.94 (14:30) 7.22 (13:20) 0 0 0 0 0
06-04-2019 18.2 (14:50) 8.2 (00:00) 13.2 11.11 (17:40) 5.56 (16:30) 0.8 0 0 0.8 0
05-04-2019 19.2 (14:10) 9.5 (00:00) 14.4 11.39 (22:00) 5.56 (16:00) 2.8 0 0 1.4 1.4
04-04-2019 16.8 (13:00) 10.8 (00:00) 13.8 7.5 (15:30) 4.17 (15:10) 0 0 0 0 0
03-04-2019 22.6 (12:20) 10 (00:00) 16.3 9.17 (14:30) 5.28 (16:00) 0 0 0 0 0
02-04-2019 21.2 (15:00) 11.9 (00:00) 16.6 7.22 (15:10) 4.72 (15:10) 4.8 0 0 0 4.8
01-04-2019 17.8 (16:20) 12.4 (00:00) 15.1 6.39 (16:20) 3.06 (00:10) 1.8 1.8 0 0 0
31-03-2019 15 (16:30) 10.7 (00:00) 12.8 8.33 (14:00) 4.17 (14:00) 15 0.6 8.2 4.6 1.6
30-03-2019 17.4 (13:10) 6.8 (00:00) 12.1 10.56 (17:00) 5.83 (16:00) 0 0 0 0 0
29-03-2019 16.8 (13:10) 6.6 (00:00) 11.7 10.28 (13:00) 5.28 (13:20) 0 0 0 0 0
28-03-2019 18.5 (11:00) 5.4 (00:00) 12 8.06 (12:50) 4.17 (13:30) 0 0 0 0 0
27-03-2019 17.9 (13:40) 6.3 (00:00) 12.1 13.61 (15:50) 6.94 (15:50) 0 0 0 0 0
26-03-2019 18.4 (14:30) 7 (00:00) 12.7 14.72 (14:40) 7.5 (13:20) 0 0 0 0 0
25-03-2019 21.8 (14:20) 7.3 (00:00) 14.5 5.56 (14:40) 3.06 (16:50) 0 0 0 0 0

Gráficas

Temp. máximas Temp. mínimas Temp. medias Precipitaciones Rachas de viento máximas Velocidades máximas media en intervalos de 10 minutos

Datos horarios

Fecha y hora oficial Temperatura (ºC) Velocidad del viento (km/h) Dirección del viento Racha (km/h) Dirección de racha Precipitación (mm) Presión (hPa) Tendencia (hPa) Humedad (%)
2019-04-23 23:00:00 14.9 15 Oeste 40 Oeste 0 994.2 3.5 47
2019-04-23 22:00:00 14.7 2 Oeste 15 Sudoeste 0 992.6 1.9 81
2019-04-23 21:00:00 15.6 9 Sudoeste 16 Sudoeste 0 991.2 0.6 76
2019-04-23 20:00:00 16.7 10 Sur 22 Sudoeste 0 990.7 0 75
2019-04-23 19:00:00 17.6 10 Sur 23 Sur 0 990.7 0.5 71
2019-04-23 18:00:00 17.1 10 Sudoeste 17 Sudoeste 0 990.6 0.5 74
2019-04-23 17:00:00 15.1 8 Sudoeste 45 Oeste 1.2 990.7 0.8 76
2019-04-23 16:00:00 19.9 12 Oeste 25 Sur 0 990.2 0.4 51
2019-04-23 15:00:00 20.7 16 Sur 32 Sur 0 990.1 0.3 55
2019-04-23 14:00:00 21 12 Sur 21 Sur 0 989.9 0.3 53
2019-04-23 13:00:00 20.6 10 Sur 19 Sudeste 0 989.8 0.2 55
2019-04-23 12:00:00 20.5 11 Sudeste 19 Sudeste 0 989.8 0.3 58
2019-04-23 11:00:00 20 3 Sudoeste 9 Sudoeste 0 989.6 0.6 49
2019-04-23 10:00:00 16 5 Sudoeste 11 Sur 0.2 989.6 0.7 68
2019-04-23 09:00:00 13.9 3 Oeste 15 Noroeste 0 989.5 0.5 77
2019-04-23 08:00:00 12.7 4 Noroeste 12 Noroeste 0 989 -0.3 80
2019-04-23 07:00:00 11.9 4 Oeste 9 Noroeste 0 988.9 -0.6 88
2019-04-23 06:00:00 11.6 3 Norte 5 Noroeste 0 989 -1.1 94
2019-04-23 05:00:00 11.5 4 Norte 5 Norte 0 989.3 -1.4 94
2019-04-23 04:00:00 12 2 Sudoeste 11 Noroeste 0 989.5 -1.7 91
2019-04-23 03:00:00 11.5 4 Oeste 8 Oeste 0 990.1 -1.4 91
2019-04-23 02:00:00 12.2 3 Noroeste 8 Noroeste 0 990.7 -1.2 92
2019-04-23 01:00:00 13.1 4 Noroeste 7 Noroeste 0 991.2 -0.7 89
2019-04-23 00:00:00 14 3 Noroeste 7 Norte 0 991.5 -0.2 89
2019-04-22 23:00:00 14.3 3 Norte 6 Norte 0 991.9 0.9 88
2019-04-22 22:00:00 14.6 3 Norte 7 Nordeste 0 991.9 0.9 87
2019-04-22 21:00:00 15 0 Calma 12 Sudoeste 0 991.7 1 83
2019-04-22 20:00:00 15.3 7 Sur 16 Sur 0 991 0.4 80
2019-04-22 19:00:00 16 3 Sudeste 8 Este 0 991 0.2 76
2019-04-22 18:00:00 17.3 6 Sur 12 Sur 0 990.7 -0.6 72
2019-04-22 17:00:00 16.9 4 Este 17 Nordeste 0 990.6 -0.8 73
2019-04-22 16:00:00 18.5 9 Norte 25 Nordeste 0 990.8 -1.1 65
2019-04-22 15:00:00 16.7 7 Nordeste 19 Norte 0.4 991.3 -0.6 74
2019-04-22 14:00:00 16.5 12 Norte 20 Norte 0 991.4 -0.2 73
2019-04-22 13:00:00 14.5 3 Sudoeste 17 Noroeste 0.8 991.9 0.5 82
2019-04-22 12:00:00 14.8 6 Noroeste 19 Noroeste 0 991.9 0.8 75
2019-04-22 11:00:00 14.5 8 Noroeste 18 Noroeste 0 991.6 0.7 75
2019-04-22 10:00:00 13.5 7 Noroeste 15 Noroeste 0.2 991.4 1 81
2019-04-22 09:00:00 13.5 8 Noroeste 18 Noroeste 0 991.1 0.2 78
2019-04-22 08:00:00 12.9 7 Noroeste 18 Norte 0 990.9 -0.7 81
2019-04-22 07:00:00 12.7 6 Noroeste 21 Norte 0 990.4 -1.4 82
2019-04-22 06:00:00 12.7 9 Noroeste 25 Norte 0.4 990.9 -1.3 84
2019-04-22 05:00:00 12.4 2 Sudeste 21 Norte 0 991.6 -1.8 91
2019-04-22 04:00:00 12.5 10 Norte 30 Noroeste 0.2 991.8 -2.6 85
2019-04-22 03:00:00 12 16 Norte 28 Norte 1.4 992.2 -1.9 88
2019-04-22 02:00:00 12.2 13 Norte 31 Norte 6.6 993.4 -0.5 89
2019-04-22 01:00:00 12.5 9 Norte 19 Norte 5.4 994.4 1.9 92
2019-04-22 00:00:00 13.4 10 Norte 32 Norte 0.8 994.1 0.8 84
2019-04-21 23:00:00 14 14 Norte 47 Norte 0.4 993.9 -1.3 76
2019-04-21 22:00:00 13.7 23 Norte 60 Norte 0.8 992.5 -2.6 80
2019-04-21 21:00:00 12.2 23 Norte 42 Norte 7 993.3 -2.3 92
2019-04-21 20:00:00 12.6 16 Norte 42 Norte 7.6 995.2 -0.2 89
2019-04-21 19:00:00 12.6 16 Nordeste 25 Nordeste 5.6 995.1 -1.3 92
2019-04-21 18:00:00 13 10 Norte 44 Noroeste 4.2 995.6 -0.7 90
2019-04-21 17:00:00 14.8 17 Norte 41 Norte 0.2 995.4 -1.4 75
2019-04-21 16:00:00 15 11 Nordeste 24 Norte 0 996.4 -1.1 80
2019-04-21 15:00:00 15.4 8 Nordeste 21 Este 0 996.3 -1.8 82
2019-04-21 14:00:00 15.9 12 Este 22 Nordeste 0 996.8 -1.5 80
2019-04-21 13:00:00 17 6 Este 22 Este 0 997.5 -1.1 69
2019-04-21 12:00:00 16.5 12 Nordeste 31 Norte 0 998.1 -1 66
2019-04-21 11:00:00 15.8 7 Nordeste 16 Nordeste 0 998.3 -1.1 72
2019-04-21 10:00:00 14.8 11 Nordeste 22 Norte 0 998.6 -0.9 74
2019-04-21 09:00:00 14.2 8 Nordeste 26 Nordeste 0 999.1 -0.5 71
2019-04-21 08:00:00 14.2 13 Norte 29 Nordeste 0 999.4 -0.9 70
2019-04-21 07:00:00 14 13 Norte 32 Norte 0 999.5 -1.6 71
2019-04-21 06:00:00 13.9 19 Norte 35 Nordeste 0 999.6 -1.4 71
2019-04-21 05:00:00 13.7 14 Norte 36 Norte 0 1000.3 -2.2 72
2019-04-21 04:00:00 13.7 14 Norte 34 Norte 0 1001.1 -1.9 73
2019-04-21 03:00:00 13.9 17 Norte 35 Norte 0 1001 -2.7 73
2019-04-21 02:00:00 14.2 13 Nordeste 27 Norte 0 1002.5 -1.4 75
2019-04-21 01:00:00 14.3 6 Nordeste 21 Este 0 1003 -0.8 83
2019-04-21 00:00:00 14.4 6 Nordeste 19 Nordeste 0 1003.7 0.4 81
2019-04-20 23:00:00 14.6 5 Nordeste 18 Nordeste 0 1003.9 1 81
2019-04-20 22:00:00 14.9 7 Nordeste 25 Este 0 1003.8 0.9 76
2019-04-20 21:00:00 15 17 Nordeste 29 Este 0 1003.3 0.5 77
2019-04-20 20:00:00 15 5 Nordeste 21 Nordeste 0 1002.9 0.1 78
2019-04-20 19:00:00 15.2 10 Nordeste 25 Nordeste 0 1002.9 -0.1 75
2019-04-20 18:00:00 15.1 11 Nordeste 25 Nordeste 0 1002.8 -0.6 79
2019-04-20 17:00:00 14.9 11 Nordeste 26 Nordeste 0 1002.8 -0.5 82
2019-04-20 16:00:00 14.1 15 Nordeste 31 Este 0.2 1003 0 88
2019-04-20 15:00:00 13.2 10 Nordeste 24 Nordeste 3 1003.4 0.4 97
2019-04-20 14:00:00 13 11 Nordeste 27 Nordeste 5.6 1003.3 0.6 97
2019-04-20 13:00:00 13.3 12 Nordeste 23 Nordeste 4.2 1003 0.4 97
2019-04-20 12:00:00 13.3 12 Nordeste 26 Nordeste 1.8 1003 0.5 97
2019-04-20 11:00:00 13.3 10 Nordeste 38 Nordeste 0.6 1002.7 0.7 96
2019-04-20 10:00:00 13.3 14 Nordeste 32 Nordeste 3.6 1002.6 1.1 96
2019-04-20 09:00:00 13.3 15 Nordeste 36 Nordeste 0.6 1002.5 1 95
2019-04-20 08:00:00 13.3 14 Nordeste 46 Nordeste 0.8 1002 1.9 95
2019-04-20 07:00:00 13.3 18 Nordeste 55 Nordeste 5.6 1001.5 0.5 95
2019-04-20 06:00:00 13.3 35 Nordeste 68 Nordeste 15.4 1001.5 -0.7 96
2019-04-20 05:00:00 14.8 19 Este 47 Nordeste 0.2 1000.1 -3.7 85
2019-04-20 04:00:00 14.3 21 Nordeste 48 Nordeste 1.8 1001 -3.5 93
2019-04-20 03:00:00 14.5 22 Nordeste 49 Nordeste 1.4 1002.2 -2.5 93
2019-04-20 02:00:00 14.7 19 Nordeste 55 Este 0.6 1003.8 -2.3 94
2019-04-20 01:00:00 14 4 Oeste 16 Oeste 3.6 1004.5 -1.2 97
2019-04-20 00:00:00 14.4 7 Norte 32 Nordeste 3.8 1004.7 -0.8 97
2019-04-19 23:00:00 13.6 7 Norte 17 Nordeste 4 1006.1 0.6 98
2019-04-19 22:00:00 13.1 5 Noroeste 10 Norte 1.2 1005.7 0.1 97
2019-04-19 21:00:00 12.5 3 Noroeste 15 Oeste 1.8 1005.5 -0.1 97
2019-04-19 20:00:00 12.4 4 Noroeste 19 Noroeste 0.6 1005.5 -0.2 96
2019-04-19 19:00:00 12.5 7 Noroeste 17 Noroeste 0.4 1005.6 -0.4 94
2019-04-19 18:00:00 12.5 9 Noroeste 16 Noroeste 0.8 1005.6 0 93
2019-04-19 17:00:00 13.1 6 Noroeste 13 Noroeste 2.6 1005.7 0.2 93
2019-04-19 16:00:00 13.9 3 Norte 14 Norte 0.8 1006 0.4 89
2019-04-19 15:00:00 14.1 7 Norte 15 Oeste 0.6 1005.6 -0.2 87
2019-04-19 14:00:00 14.4 6 Oeste 17 Oeste 0 1005.5 -0.2 85
2019-04-19 13:00:00 14.7 6 Oeste 13 Sudoeste 0 1005.6 -0.2 83
2019-04-19 12:00:00 14.5 5 Oeste 17 Oeste 0 1005.8 0.6 85
2019-04-19 11:00:00 13.9 6 Oeste 15 Oeste 0 1005.7 0.1 89
2019-04-19 10:00:00 13.1 5 Oeste 15 Oeste 0.2 1005.8 0.5 94
2019-04-19 09:00:00 12.9 7 Oeste 13 Oeste 0.2 1005.2 0.1 95
2019-04-19 08:00:00 12.9 5 Noroeste 10 Noroeste 0.6 1005.6 0.6 95
2019-04-19 07:00:00 13.1 3 Noroeste 8 Sudoeste 0.6 1005.3 0.2 95
2019-04-19 06:00:00 12.9 4 Norte 11 Norte 1.6 1005.1 0.1 96
2019-04-19 05:00:00 12.8 9 Norte 15 Nordeste 3.2 1005 0.1 95
2019-04-19 04:00:00 13.2 6 Nordeste 13 Nordeste 0.4 1005.1 0.6 92
2019-04-19 03:00:00 13.6 8 Nordeste 13 Nordeste 0.2 1005 0 88
2019-04-19 02:00:00 13.8 5 Nordeste 11 Nordeste 0.2 1004.9 0.4 88
2019-04-19 01:00:00 14.1 5 Nordeste 12 Nordeste 0.2 1004.5 1.1 87
2019-04-19 00:00:00 14.2 4 Sur 10 Nordeste 0 1005 2.7 85
2019-04-18 23:00:00 14.4 2 Nordeste 13 Sudoeste 0 1004.5 4.1 82
2019-04-18 22:00:00 14.5 3 Sudoeste 24 Sudoeste 0.6 1003.4 1.7 81
2019-04-18 21:00:00 16.4 13 Sudoeste 30 Sudoeste 0 1002.3 0.9 64
2019-04-18 20:00:00 16.5 16 Norte 27 Norte 0 1000.4 -0.4 58
2019-04-18 19:00:00 16.6 11 Noroeste 29 Noroeste 0 1001.7 0.9 59
2019-04-18 18:00:00 16 14 Oeste 35 Oeste 0 1001.4 0.4 59
2019-04-18 17:00:00 17.3 18 Oeste 35 Oeste 0 1000.8 -0.9 58
2019-04-18 16:00:00 18.7 9 Oeste 18 Oeste 0 1000.8 -0.9 59
2019-04-18 15:00:00 18.7 5 Noroeste 13 Noroeste 0 1001 -1.1 60
2019-04-18 14:00:00 18.1 4 Este 17 Nordeste 0 1001.7 -0.9 60
2019-04-18 13:00:00 18.5 7 Norte 23 Noroeste 0 1001.7 -1 59
2019-04-18 12:00:00 17.5 12 Norte 23 Norte 0 1002.1 -0.2 62
2019-04-18 11:00:00 17.3 4 Oeste 11 Sur 0 1002.6 0.2 60
2019-04-18 10:00:00 16.7 5 Noroeste 12 Noroeste 0 1002.7 0.9 63
2019-04-18 09:00:00 16 4 Oeste 10 Sudoeste 0 1002.3 1.3 60
2019-04-18 08:00:00 15.8 5 Sudoeste 13 Sudoeste 0 1002.4 1.6 61
2019-04-18 07:00:00 16 7 Sudoeste 18 Sudoeste 0 1001.8 -1.2 57
2019-04-18 06:00:00 16 5 Nordeste 19 Norte 0 1001 -2.6 58
2019-04-18 05:00:00 16.3 16 Norte 35 Nordeste 0 1000.8 -3.1 59
2019-04-18 04:00:00 16.4 12 Norte 22 Norte 0 1003 -2.3 60
2019-04-18 03:00:00 15.9 6 Nordeste 14 Noroeste 0 1003.6 -0.8 59
2019-04-18 02:00:00 15.6 5 Noroeste 16 Nordeste 0 1003.9 -0.4 63
2019-04-18 01:00:00 15.1 4 Oeste 14 Oeste 0 1005.3 1.6 72
2019-04-18 00:00:00 15.8 6 Nordeste 13 Sudeste 0 1004.4 0.6 73
2019-04-17 23:00:00 16.2 8 Este 19 Nordeste 0 1004.3 0.1 66
2019-04-17 22:00:00 15.8 8 Este 29 Este 0 1003.7 -1.1 78
2019-04-17 21:00:00 15.6 15 Nordeste 40 Nordeste 0 1003.8 -1.2 78
2019-04-17 20:00:00 16 20 Este 40 Este 0 1004.2 -1 76
2019-04-17 19:00:00 16.2 21 Este 40 Este 0 1004.8 -1.1 75
2019-04-17 18:00:00 17.6 21 Nordeste 36 Este 0 1005 -1.7 71
2019-04-17 17:00:00 18.4 18 Este 37 Nordeste 0 1005.2 -2.1 66
2019-04-17 16:00:00 19.1 14 Este 35 Este 0 1005.9 -2 58
2019-04-17 15:00:00 19.3 18 Nordeste 31 Este 0 1006.7 -1.3 58
2019-04-17 14:00:00 19.1 17 Este 27 Nordeste 0 1007.3 -1.1 60
2019-04-17 13:00:00 18.7 16 Este 27 Nordeste 0 1007.9 -0.6 64
2019-04-17 12:00:00 19.3 13 Este 22 Este 0 1008 -0.7 57
2019-04-17 11:00:00 18.3 4 Sudeste 9 Nordeste 0 1008.4 -0.2 61
2019-04-17 10:00:00 16.4 3 Nordeste 5 Nordeste 0 1008.5 0.3 68
2019-04-17 09:00:00 13.8 3 Noroeste 6 Noroeste 0 1008.7 0.4 79
2019-04-17 08:00:00 11.5 0 Calma 5 Noroeste 0 1008.6 0.3 88
2019-04-17 07:00:00 11.5 3 Norte 6 Sudoeste 0 1008.2 -0.4 87
2019-04-17 06:00:00 12 3 Oeste 8 Noroeste 0 1008.3 -0.8 85
2019-04-17 05:00:00 12.4 5 Norte 6 Norte 0 1008.3 -1.4 87
2019-04-17 04:00:00 12.6 3 Noroeste 5 Noroeste 0 1008.6 -1.5 91
2019-04-17 03:00:00 13.1 4 Norte 7 Nordeste 0 1009.1 -1.1 89
2019-04-17 02:00:00 14 5 Nordeste 9 Este 0 1009.7 -0.5 86
2019-04-17 01:00:00 14.5 6 Nordeste 15 Este 0 1010.1 0.4 85
2019-04-17 00:00:00 14.8 8 Este 17 Nordeste 0 1010.2 1.1 87
2019-04-16 23:00:00 15.1 10 Nordeste 19 Nordeste 0 1010.2 1.5 87
2019-04-16 22:00:00 15.4 5 Nordeste 15 Este 0 1009.7 1.1 84
2019-04-16 21:00:00 15.8 8 Este 18 Este 0 1009.1 0.2 81
2019-04-16 20:00:00 16.7 12 Este 22 Este 0 1008.7 -0.4 74
2019-04-16 19:00:00 17.7 11 Este 25 Este 0 1008.6 -0.9 71
2019-04-16 18:00:00 18.8 12 Este 26 Este 0 1008.9 -0.9 66
2019-04-16 17:00:00 19.5 10 Este 23 Nordeste 0 1009.1 -0.7 65
2019-04-16 16:00:00 19.4 13 Este 26 Nordeste 0 1009.5 0 64
2019-04-16 15:00:00 19.4 13 Sudeste 26 Sudeste 0 1009.8 0.3 65
2019-04-16 14:00:00 18.7 14 Sudeste 29 Sudeste 0 1009.8 0.8 70
2019-04-16 13:00:00 19 14 Sudeste 27 Sudeste 0 1009.5 0.9 72
2019-04-16 12:00:00 19.4 12 Este 25 Este 0 1009.5 1.4 67
2019-04-16 11:00:00 18.5 13 Este 25 Este 0 1009 1.5 74
2019-04-16 10:00:00 18.6 4 Nordeste 13 Este 0 1008.6 1.8 68
2019-04-16 09:00:00 15.6 5 Sudoeste 9 Sur 0 1008.1 1.6 80
2019-04-16 08:00:00 12.7 3 Nordeste 9 Norte 0 1007.5 1.2 93
2019-04-16 07:00:00 12.7 3 Nordeste 7 Norte 0 1006.8 0.9 90
2019-04-16 06:00:00 13.3 2 Sur 6 Nordeste 0 1006.5 0.2 89
2019-04-16 05:00:00 13.5 0 Calma 9 Nordeste 0 1006.3 -0.2 87
2019-04-16 04:00:00 14.2 0 Calma 6 Sudoeste 0 1005.9 -0.7 87
2019-04-16 03:00:00 14.8 0 Calma 8 Oeste 0 1006.3 0.1 88
2019-04-16 02:00:00 15.2 3 Noroeste 5 Oeste 0 1006.5 0.4 87
2019-04-16 01:00:00 15.8 2 Norte 7 Este 0 1006.6 1 85
2019-04-16 00:00:00 16.1 5 Nordeste 10 Este 0 1006.2 1.4 86
2019-04-15 23:00:00 15.9 5 Este 13 Nordeste 0 1006.1 1.7 88
2019-04-15 22:00:00 16.1 4 Este 14 Este 0 1005.6 1.4 87
2019-04-15 21:00:00 16.3 7 Este 15 Este 0 1004.8 0.7 87
2019-04-15 20:00:00 17.3 10 Este 16 Este 0 1004.4 0.3 82
2019-04-15 19:00:00 19.2 7 Sudeste 15 Este 0 1004.2 -0.1 69
2019-04-15 18:00:00 20.7 10 Sudeste 15 Sudeste 0 1004.1 -0.9 62
2019-04-15 17:00:00 22.4 10 Sudeste 20 Sur 0 1004.1 -1.2 51
2019-04-15 16:00:00 23.6 10 Sur 23 Sur 0 1004.3 -1.3 38
2019-04-15 15:00:00 23.1 12 Sur 19 Sudeste 0 1005 -1 40
2019-04-15 14:00:00 23 9 Sur 15 Sudoeste 0 1005.3 -1 44
2019-04-15 13:00:00 21.9 6 Sudeste 14 Sudeste 0 1005.6 -0.4 49
2019-04-15 12:00:00 20.6 4 Sudeste 12 Sudeste 0 1006 0.3 61
2019-04-15 11:00:00 18.6 5 Sur 15 Nordeste 0 1006.3 1.2 74
2019-04-15 10:00:00 17.4 8 Este 21 Este 0 1006 1.7 80
2019-04-15 09:00:00 17.3 11 Nordeste 22 Nordeste 0 1005.7 1.7 73
2019-04-15 08:00:00 16.1 9 Nordeste 14 Nordeste 0 1005.1 1 68
2019-04-15 07:00:00 16.6 6 Nordeste 17 Nordeste 0 1004.3 0 66
2019-04-15 06:00:00 16.7 5 Este 11 Este 0 1004 -0.7 62
2019-04-15 05:00:00 16.9 3 Noroeste 9 Oeste 0 1004.1 -1 52
2019-04-15 04:00:00 17.5 6 Noroeste 13 Noroeste 0 1004.3 -1.1 47
2019-04-15 03:00:00 17.3 5 Noroeste 10 Noroeste 0 1004.7 -0.9 46
2019-04-15 02:00:00 16.9 4 Noroeste 6 Oeste 0 1005.1 -0.6 48
2019-04-15 01:00:00 17.1 5 Noroeste 9 Noroeste 0 1005.4 0.1 47
2019-04-15 00:00:00 17.4 3 Oeste 4 Noroeste 0 1005.6 0.9 56
2019-04-14 23:00:00 18.4 3 Nordeste 12 Nordeste 0 1005.7 1.8 55
2019-04-14 22:00:00 19.8 2 Sur 7 Sudeste 0 1005.3 1.5 46
2019-04-14 21:00:00 21.4 3 Sudeste 17 Sudoeste 0 1004.7 1 40
2019-04-14 20:00:00 23.3 10 Sur 30 Sur 0 1003.9 0 37
2019-04-14 19:00:00 25.2 15 Sur 31 Sur 0 1003.8 -0.7 30
2019-04-14 18:00:00 26.1 18 Sur 35 Sur 0 1003.7 -1.3 31
2019-04-14 17:00:00 26.5 19 Sur 40 Sur 0 1003.9 -1.6 28
2019-04-14 16:00:00 27.8 19 Sur 33 Sur 0 1004.5 -1.2 26
2019-04-14 15:00:00 29 10 Oeste 29 Sudoeste 0 1005 -1.4 19
2019-04-14 14:00:00 28.1 12 Oeste 31 Oeste 0 1005.5 -1.2 19
2019-04-14 13:00:00 27.7 12 Oeste 26 Oeste 0 1005.7 -0.9 21
2019-04-14 12:00:00 25.9 9 Oeste 27 Noroeste 0 1006.4 -0.2 23
2019-04-14 11:00:00 23.8 12 Oeste 27 Oeste 0 1006.7 0.2 29
2019-04-14 10:00:00 21.8 8 Oeste 21 Oeste 0 1006.6 0.4 33
2019-04-14 09:00:00 19.1 7 Norte 16 Noroeste 0 1006.6 0.5 37
2019-04-14 08:00:00 14.7 5 Oeste 14 Noroeste 0 1006.5 0.2 46
2019-04-14 07:00:00 12.6 2 Sudeste 13 Norte 0 1006.2 -0.4 53
2019-04-14 06:00:00 12.1 4 Noroeste 9 Noroeste 0 1006.1 -1.1 58
2019-04-14 05:00:00 11.8 4 Noroeste 10 Sudeste 0 1006.3 -1.6 62
2019-04-14 04:00:00 12 4 Oeste 10 Oeste 0 1006.6 -1.9 60
2019-04-14 03:00:00 12.7 5 Oeste 11 Oeste 0 1007.2 -1.5 60
2019-04-14 02:00:00 12.3 4 Noroeste 9 Noroeste 0 1007.9 -1 63
2019-04-14 01:00:00 12.5 4 Noroeste 8 Oeste 0 1008.5 0.1 63
2019-04-14 00:00:00 13.2 5 Oeste 10 Noroeste 0 1008.7 0.7 61
2019-04-13 23:00:00 14 3 Oeste 5 Noroeste 0 1008.9 1.1 65
2019-04-13 22:00:00 14.9 0 Calma 9 Nordeste 0 1008.4 0.7 71
2019-04-13 21:00:00 15.7 3 Nordeste 13 Este 0 1008 0.5 67
2019-04-13 20:00:00 17.3 8 Nordeste 14 Nordeste 0 1007.8 0.4 63
2019-04-13 19:00:00 18.1 6 Sudeste 16 Sudeste 0 1007.7 0.1 50
2019-04-13 18:00:00 20.1 12 Sudeste 20 Sudeste 0 1007.5 -0.2 47
2019-04-13 17:00:00 21.1 8 Sudeste 20 Sudeste 0 1007.4 -0.8 43
2019-04-13 16:00:00 20.6 7 Este 19 Sudeste 0 1007.6 -1.1 41
2019-04-13 15:00:00 19.7 9 Este 21 Sudeste 0 1007.7 -1.1 52
2019-04-13 14:00:00 19.9 10 Sudeste 18 Sudeste 0 1008.2 -0.5 55
2019-04-13 13:00:00 19.9 10 Sudeste 19 Sur 0 1008.7 0.3 51
2019-04-13 12:00:00 19.5 10 Sudeste 17 Sur 0 1008.8 0.8 52
2019-04-13 11:00:00 18.6 5 Sudeste 12 Este 0 1008.7 1.2 43
2019-04-13 10:00:00 16.5 4 Sudeste 9 Nordeste 0 1008.4 1.6 43
2019-04-13 09:00:00 12.4 2 Sur 6 Noroeste 0 1008 1.7 58
2019-04-13 08:00:00 8.5 0 Calma 9 Nordeste 0 1007.5 1.1 70
2019-04-13 07:00:00 8.1 3 Noroeste 5 Norte 0 1006.8 0 74
2019-04-13 06:00:00 8.9 2 Noroeste 5 Norte 0 1006.3 -0.7 73
2019-04-13 05:00:00 9.5 3 Noroeste 7 Norte 0 1006.4 -1.3 72
2019-04-13 04:00:00 10.4 3 Norte 8 Nordeste 0 1006.8 -0.9 71
2019-04-13 03:00:00 10.9 5 Oeste 9 Oeste 0 1007 -0.7 69
2019-04-13 02:00:00 11.2 4 Noroeste 11 Noroeste 0 1007.7 -0.1 69
2019-04-13 01:00:00 11.6 4 Oeste 8 Oeste 0 1007.7 0 66
2019-04-13 00:00:00 12.1 3 Oeste 6 Oeste 0 1007.7 0.5 67
2019-04-12 23:00:00 13 4 Oeste 7 Oeste 0 1007.8 0.9 67
2019-04-12 22:00:00 13.8 3 Norte 9 Nordeste 0 1007.7 0.7 68
2019-04-12 21:00:00 14.7 6 Nordeste 12 Este 0 1007.2 0.6 66
2019-04-12 20:00:00 15.9 5 Este 17 Sur 0 1006.9 0.6 57
2019-04-12 19:00:00 16.6 9 Sudeste 28 Sudeste 0 1007 0.5 57
2019-04-12 18:00:00 17.9 12 Sudeste 21 Sur 0 1006.6 -0.2 51
2019-04-12 17:00:00 18.8 11 Sudeste 23 Sudeste 0 1006.3 -0.7 48
2019-04-12 16:00:00 18.9 11 Este 24 Este 0 1006.5 -0.5 45
2019-04-12 15:00:00 18.5 11 Este 26 Nordeste 0 1006.8 -0.1 42
2019-04-12 14:00:00 18.5 14 Este 31 Este 0 1007 0.4 42
2019-04-12 13:00:00 18.5 14 Este 26 Este 0 1007 0.4 36
2019-04-12 12:00:00 18.8 12 Este 21 Este 0 1006.9 0.1 31
2019-04-12 11:00:00 18 6 Oeste 20 Oeste 0 1006.6 -0.1 30
2019-04-12 10:00:00 16.1 9 Noroeste 17 Noroeste 0 1006.6 0.6 38
2019-04-12 09:00:00 14.1 7 Noroeste 23 Noroeste 0 1006.8 1.2 42
2019-04-12 08:00:00 11.4 8 Noroeste 19 Noroeste 0 1006.7 0.9 50
2019-04-12 07:00:00 9.6 5 Noroeste 12 Noroeste 0 1006 0 59
2019-04-12 06:00:00 10.4 5 Noroeste 9 Noroeste 0 1005.6 -0.8 57
2019-04-12 05:00:00 10.7 4 Oeste 8 Oeste 0 1005.8 -0.8 60
2019-04-12 04:00:00 11.5 5 Noroeste 10 Noroeste 0 1006 -0.5 56
2019-04-12 03:00:00 11 4 Noroeste 8 Norte 0 1006.4 0.1 59
2019-04-12 02:00:00 11.5 4 Norte 6 Norte 0 1006.6 0.4 62
2019-04-12 01:00:00 12.5 4 Norte 14 Nordeste 0 1006.5 0.6 64
2019-04-12 00:00:00 13.3 4 Noroeste 9 Noroeste 0 1006.3 1.3 67
2019-04-11 23:00:00 14.2 3 Noroeste 12 Nordeste 0 1006.2 0.9 66
2019-04-11 22:00:00 14.7 5 Norte 17 Nordeste 0 1005.9 0.6 67
2019-04-11 21:00:00 15.7 7 Sudeste 13 Este 0 1005 -0.5 62
2019-04-11 20:00:00 16.4 7 Sudeste 15 Sudeste 0 1005.3 -0.1 55
2019-04-11 19:00:00 17.5 8 Sur 25 Sudeste 0 1005.3 0 54
2019-04-11 18:00:00 17.7 10 Sudeste 22 Sudeste 0 1005.5 -0.1 50
2019-04-11 17:00:00 18.2 13 Sudeste 27 Sudeste 0 1005.4 -0.3 45
2019-04-11 16:00:00 19.3 13 Sudeste 26 Sudeste 0 1005.3 -0.4 38
2019-04-11 15:00:00 19.4 10 Sudeste 23 Sudeste 0 1005.6 -0.1 38
2019-04-11 14:00:00 19.7 11 Sudeste 20 Este 0 1005.7 0.2 34
2019-04-11 13:00:00 19.7 11 Este 20 Este 0 1005.7 0.3 33
2019-04-11 12:00:00 19.8 6 Sudeste 13 Oeste 0 1005.7 0.6 31
2019-04-11 11:00:00 18.3 5 Oeste 17 Norte 0 1005.5 0.6 33
2019-04-11 10:00:00 16.4 4 Noroeste 14 Noroeste 0 1005.4 0.9 40
2019-04-11 09:00:00 13.4 5 Oeste 12 Noroeste 0 1005.1 0.9 49
2019-04-11 08:00:00 10.6 5 Oeste 11 Oeste 0 1004.9 0.8 58
2019-04-11 07:00:00 10.4 3 Oeste 9 Noroeste 0 1004.5 0.5 60
2019-04-11 06:00:00 11 4 Noroeste 11 Oeste 0 1004.2 0.2 57
2019-04-11 05:00:00 12.2 6 Noroeste 16 Noroeste 0 1004.1 -0.3 52
2019-04-11 04:00:00 13 7 Noroeste 22 Noroeste 0 1004 -0.3 50
2019-04-11 03:00:00 13.3 11 Noroeste 21 Noroeste 0 1004 0 49
2019-04-11 02:00:00 12.4 5 Oeste 14 Noroeste 0 1004.4 0.2 54
2019-04-11 01:00:00 12.9 9 Noroeste 18 Noroeste 0 1004.3 0.4 53
2019-04-11 00:00:00 13.5 5 Noroeste 21 Noroeste 0 1004 1 51
2019-04-10 23:00:00 14 9 Oeste 21 Oeste 0 1004.2 1.9 52
2019-04-10 22:00:00 14.5 9 Oeste 26 Oeste 0 1003.9 1.5 52
2019-04-10 21:00:00 15.4 13 Oeste 26 Oeste 0 1003 1.2 45
2019-04-10 20:00:00 17.2 10 Sudoeste 26 Sudoeste 0 1002.3 1.1 38
2019-04-10 19:00:00 16.9 15 Oeste 38 Oeste 0 1002.4 0.8 37
2019-04-10 18:00:00 18.3 18 Oeste 43 Sudoeste 0 1001.8 -0.5 34
2019-04-10 17:00:00 20.9 20 Sudoeste 44 Sudoeste 0 1001.2 -1.4 31
2019-04-10 16:00:00 21.5 16 Oeste 36 Noroeste 0 1001.6 -1.6 23
2019-04-10 15:00:00 20.7 17 Oeste 34 Oeste 0 1002.3 -1.4 27
2019-04-10 14:00:00 20.1 14 Oeste 40 Noroeste 0 1002.6 -1.1 31
2019-04-10 13:00:00 18.9 12 Oeste 39 Noroeste 0 1003.2 -0.5 36
2019-04-10 12:00:00 18.2 13 Oeste 33 Oeste 0 1003.7 0.2 38
2019-04-10 11:00:00 17.3 14 Oeste 33 Oeste 0 1003.7 0.5 43
2019-04-10 10:00:00 15.6 11 Oeste 33 Oeste 0 1003.7 0.8 48
2019-04-10 09:00:00 14 12 Oeste 23 Oeste 0 1003.5 0.9 55
2019-04-10 08:00:00 12.4 6 Oeste 22 Oeste 0 1003.2 0.4 60
2019-04-10 07:00:00 12.8 11 Sudoeste 28 Oeste 0 1002.9 0 57
2019-04-10 06:00:00 12.9 9 Oeste 29 Oeste 0 1002.6 -0.5 54
2019-04-10 05:00:00 13.4 13 Oeste 29 Oeste 0 1002.8 -0.8 53
2019-04-10 04:00:00 11.6 5 Oeste 14 Oeste 0 1002.9 -0.8 62
2019-04-10 03:00:00 12.2 8 Oeste 17 Sudoeste 0 1003.1 -0.8 60
2019-04-10 02:00:00 12.8 7 Oeste 14 Oeste 0 1003.6 -0.3 58
2019-04-10 01:00:00 13 5 Oeste 19 Noroeste 0 1003.7 0.2 55
2019-04-10 00:00:00 14.1 8 Oeste 23 Oeste 0 1003.9 1 51
2019-04-09 23:00:00 14.8 8 Oeste 26 Sudoeste 0 1003.9 1.7 51
2019-04-09 22:00:00 15.2 12 Oeste 25 Oeste 0 1003.5 1.5 47
2019-04-09 21:00:00 15.9 8 Oeste 30 Oeste 0 1002.9 1.3 45
2019-04-09 20:00:00 17.3 14 Oeste 38 Oeste 0 1002.2 0.5 40
2019-04-09 19:00:00 17.3 11 Noroeste 63 Noroeste 0 1002 -0.6 43
2019-04-09 18:00:00 19.5 8 Sur 26 Oeste 0 1001.6 -1.6 52
2019-04-09 17:00:00 21.3 8 Oeste 26 Oeste 0 1001.7 -2.1 28
2019-04-09 16:00:00 20 10 Oeste 32 Sudoeste 0 1002.6 -1.9 30
2019-04-09 15:00:00 20 12 Noroeste 33 Oeste 0 1003.2 -1.8 30
2019-04-09 14:00:00 18.6 12 Oeste 41 Noroeste 0 1003.8 -1.3 33
2019-04-09 13:00:00 19 15 Oeste 41 Noroeste 0 1004.5 -0.6 36
2019-04-09 12:00:00 17.9 17 Noroeste 46 Noroeste 0 1005 0.4 38
2019-04-09 11:00:00 16.6 20 Noroeste 42 Noroeste 0 1005.1 1.4 41
2019-04-09 10:00:00 15.4 19 Oeste 45 Oeste 0 1005.1 1.9 48
2019-04-09 09:00:00 14.3 15 Oeste 33 Oeste 0 1004.6 1.8 52
2019-04-09 08:00:00 13.2 8 Oeste 28 Oeste 0 1003.7 0.8 58
2019-04-09 07:00:00 13.7 10 Noroeste 32 Noroeste 0 1003.2 0.8 56
2019-04-09 06:00:00 14.5 14 Oeste 37 Noroeste 0 1002.8 -0.1 52
2019-04-09 05:00:00 15.5 12 Oeste 31 Noroeste 0 1002.9 0.1 49
2019-04-09 04:00:00 15.2 9 Oeste 32 Noroeste 0 1002.4 -0.4 50
2019-04-09 03:00:00 15 10 Oeste 27 Noroeste 0 1002.9 0.1 57
2019-04-09 02:00:00 14.7 6 Oeste 13 Oeste 0 1002.8 -0.4 65
2019-04-09 01:00:00 14.1 3 Oeste 7 Oeste 0 1002.8 -0.2 74
2019-04-09 00:00:00 15.2 4 Sudoeste 11 Sudoeste 0 1002.8 0.3 69
2019-04-08 23:00:00 15.2 4 Sudoeste 6 Sudoeste 0 1003.2 0.7 72
2019-04-08 22:00:00 16.2 3 Nordeste 5 Oeste 0 1003 0.4 67
2019-04-08 21:00:00 17.3 0 Calma 6 Oeste 0 1002.5 0.3 65
2019-04-08 20:00:00 18.1 3 Sudoeste 9 Norte 0 1002.5 0.3 62
2019-04-08 19:00:00 18.3 6 Noroeste 31 Noroeste 0 1002.6 -0.2 59
2019-04-08 18:00:00 21.9 14 Sudoeste 25 Sudoeste 0 1002.2 -1.4 41
2019-04-08 17:00:00 22.3 13 Sudoeste 26 Sudoeste 0 1002.2 -1.3 41
2019-04-08 16:00:00 21.3 9 Sudoeste 31 Sudoeste 0 1002.8 -1.2 41
2019-04-08 15:00:00 20.4 9 Oeste 32 Sudoeste 0 1003.6 -0.9 42
2019-04-08 14:00:00 21.9 15 Sudoeste 35 Oeste 0 1003.5 -1 38
2019-04-08 13:00:00 20.6 14 Sudoeste 28 Sudoeste 0 1004 -0.6 45
2019-04-08 12:00:00 19 10 Sudoeste 19 Sudoeste 0 1004.5 0.1 50
2019-04-08 11:00:00 17.5 7 Sudoeste 15 Sudoeste 0 1004.5 0.5 53
2019-04-08 10:00:00 15.9 4 Oeste 11 Sudoeste 0 1004.6 0.8 61
2019-04-08 09:00:00 14.3 4 Oeste 8 Oeste 0 1004.4 0.5 66
2019-04-08 08:00:00 13.4 4 Noroeste 7 Oeste 0 1004 -0.1 66
2019-04-08 07:00:00 14 3 Oeste 11 Sudoeste 0 1003.8 -0.5 62
2019-04-08 06:00:00 14.4 5 Sudoeste 9 Sudoeste 0 1003.9 -1 57
2019-04-08 05:00:00 14.3 5 Oeste 10 Noroeste 0 1004.1 -1.2 57
2019-04-08 04:00:00 14.4 3 Noroeste 9 Sur 0 1004.3 -1.1 58
2019-04-08 03:00:00 14.9 4 Oeste 18 Oeste 0 1004.9 -0.4 54
2019-04-08 02:00:00 15.3 6 Oeste 15 Oeste 0 1005.3 -0.1 51
2019-04-08 01:00:00 15.8 5 Oeste 17 Noroeste 0 1005.4 0.5 47
2019-04-08 00:00:00 16.5 10 Noroeste 21 Noroeste 0 1005.3 1.2 41
2019-04-07 23:00:00 16.7 8 Oeste 18 Oeste 0 1005.4 2 42
2019-04-07 22:00:00 17.1 6 Oeste 21 Oeste 0 1004.9 2.3 38
2019-04-07 21:00:00 17.6 6 Oeste 21 Oeste 0 1004.1 2.1 37
2019-04-07 20:00:00 18.4 13 Noroeste 32 Noroeste 0 1003.4 1.7 31
2019-04-07 19:00:00 18.9 15 Noroeste 39 Oeste 0 1002.6 1 28
2019-04-07 18:00:00 19.4 14 Noroeste 31 Noroeste 0 1002 0.7 28
2019-04-07 17:00:00 19.6 13 Noroeste 36 Noroeste 0 1001.7 0.9 27
2019-04-07 16:00:00 20 18 Noroeste 40 Oeste 0 1001.6 0.6 26
2019-04-07 15:00:00 19.6 18 Oeste 61 Noroeste 0 1001.3 0.8 27
2019-04-07 14:00:00 18.6 19 Oeste 53 Noroeste 0 1000.8 0.5 30
2019-04-07 13:00:00 17.4 19 Oeste 54 Noroeste 0 1001 1.1 35
2019-04-07 12:00:00 16.1 22 Oeste 49 Noroeste 0 1000.5 1.2 36
2019-04-07 11:00:00 14.4 17 Oeste 39 Oeste 0 1000.3 1.7 46
2019-04-07 10:00:00 12.6 11 Oeste 35 Oeste 0 999.9 1.6 56
2019-04-07 09:00:00 11.6 15 Oeste 37 Oeste 0 999.3 1.6 59
2019-04-07 08:00:00 11.1 12 Oeste 31 Oeste 0 998.6 1.2 59
2019-04-07 07:00:00 10.4 4 Sudoeste 14 Sudoeste 0 998.3 0.9 57
2019-04-07 06:00:00 9.5 3 Sudoeste 17 Oeste 0 997.7 0.2 62
2019-04-07 05:00:00 10 9 Sudoeste 21 Oeste 0 997.4 -0.5 59
2019-04-07 04:00:00 10.7 12 Sudoeste 21 Sudoeste 0 997.4 -0.3 55
2019-04-07 03:00:00 10.5 8 Sudoeste 17 Oeste 0 997.5 -0.1 55
2019-04-07 02:00:00 10.7 8 Oeste 26 Oeste 0 997.9 0.3 55
2019-04-07 01:00:00 11.3 8 Oeste 25 Oeste 0 997.7 0.6 54
2019-04-07 00:00:00 12 12 Oeste 33 Oeste 0 997.6 1.1 52
2019-04-06 23:00:00 12.7 9 Oeste 34 Sudoeste 0 997.6 1 50
2019-04-06 22:00:00 12.6 10 Sudoeste 23 Sudoeste 0 997.1 1.4 58
2019-04-06 21:00:00 12.8 6 Sudoeste 15 Sur 0 996.5 0.8 63
2019-04-06 20:00:00 13.6 11 Sur 20 Sur 0 996.6 1.4 62
2019-04-06 19:00:00 14.7 10 Sudoeste 22 Sudoeste 0 995.7 0.4 48
2019-04-06 18:00:00 13.2 8 Oeste 40 Noroeste 0.8 995.7 -0.1 64
2019-04-06 17:00:00 16.5 16 Sur 32 Sur 0 995.2 -1.2 50
2019-04-06 16:00:00 15.8 15 Sur 35 Sudoeste 0 995.3 -1.4 49
2019-04-06 15:00:00 17.5 15 Sudoeste 34 Sudoeste 0 995.8 -1.4 36
2019-04-06 14:00:00 16.5 13 Sudoeste 26 Sur 0 996.4 -0.6 38
2019-04-06 13:00:00 15.6 12 Sudoeste 30 Sudoeste 0 996.7 0.3 40
2019-04-06 12:00:00 13.9 14 Sudoeste 30 Sudoeste 0 997.2 0.8 47
2019-04-06 11:00:00 12.7 7 Sur 19 Sudoeste 0 997 1.3 54
2019-04-06 10:00:00 13.5 6 Sudoeste 14 Sudoeste 0 996.4 1.7 50
2019-04-06 09:00:00 10.1 6 Sudoeste 14 Sur 0 996.4 2 65
2019-04-06 08:00:00 8.3 4 Oeste 18 Sudoeste 0 995.7 1.9 71
2019-04-06 07:00:00 9.6 9 Sudoeste 17 Sudoeste 0 994.7 0.8 64
2019-04-06 06:00:00 8.6 3 Noroeste 14 Noroeste 0 994.4 0.3 73
2019-04-06 05:00:00 9.9 11 Oeste 22 Oeste 0 993.8 -0.1 62
2019-04-06 04:00:00 9.3 8 Sudoeste 19 Sudoeste 0 993.9 0.2 64
2019-04-06 03:00:00 8.8 11 Sudoeste 22 Sudoeste 0 994.1 0.6 69
2019-04-06 02:00:00 8.8 8 Sudoeste 16 Sudoeste 0 993.9 0.8 68
2019-04-06 01:00:00 9.3 2 Nordeste 12 Sudoeste 0 993.7 0.8 69
2019-04-06 00:00:00 10 5 Oeste 15 Oeste 0 993.5 2 69
2019-04-05 23:00:00 10.2 4 Noroeste 23 Noroeste 0.2 993.1 2.5 82
2019-04-05 22:00:00 10.8 16 Oeste 41 Oeste 1.2 992.9 2.9 79
2019-04-05 21:00:00 12.3 4 Oeste 21 Sudoeste 0 991.5 0.5 79
2019-04-05 20:00:00 12.7 10 Sudoeste 23 Sudoeste 0 990.6 0.9 79
2019-04-05 19:00:00 12.2 3 Noroeste 18 Nordeste 0 990 -0.8 78
2019-04-05 18:00:00 11.5 11 Noroeste 38 Noroeste 1.4 991 -0.4 82
2019-04-05 17:00:00 16.8 11 Sur 40 Sur 0 989.7 -2 64
2019-04-05 16:00:00 17.5 20 Sur 35 Sur 0 990.8 -1.4 58
2019-04-05 15:00:00 18.1 19 Sur 36 Sur 0 991.4 -1.4 59
2019-04-05 14:00:00 18.8 10 Sudeste 24 Sur 0 991.7 -1.4 49
2019-04-05 13:00:00 18.4 10 Sudeste 19 Sudeste 0 992.2 -1.1 52
2019-04-05 12:00:00 18.3 8 Sudeste 15 Sudeste 0 992.8 -0.6 49
2019-04-05 11:00:00 17 6 Sudeste 10 Sur 0 993.1 -0.3 55
2019-04-05 10:00:00 15.1 5 Sudoeste 12 Noroeste 0 993.3 -0.2 65
2019-04-05 09:00:00 11.4 5 Norte 7 Norte 0 993.4 -0.1 82
2019-04-05 08:00:00 9.7 2 Noroeste 6 Noroeste 0 993.4 -0.4 87
2019-04-05 07:00:00 9.9 2 Noroeste 5 Norte 0 993.5 -0.6 84
2019-04-05 06:00:00 10.3 3 Noroeste 4 Noroeste 0 993.5 -1.2 83
2019-04-05 05:00:00 11 3 Noroeste 5 Norte 0 993.8 -1.1 80
2019-04-05 04:00:00 11.3 4 Norte 6 Norte 0 994.1 -1.2 78
2019-04-05 03:00:00 11.6 4 Norte 6 Norte 0 994.7 -0.7 76
2019-04-05 02:00:00 12.2 3 Noroeste 6 Norte 0 994.9 -0.5 72
2019-04-05 01:00:00 12.8 4 Norte 11 Sur 0 995.3 -0.1 69
2019-04-05 00:00:00 12.9 3 Noroeste 6 Noroeste 0 995.4 0.3 69
2019-04-04 23:00:00 13.2 3 Sudoeste 10 Sur 0 995.4 0.3 67
2019-04-04 22:00:00 12.9 4 Sur 12 Sur 0 995.4 0.5 66
2019-04-04 21:00:00 13.2 6 Sudeste 14 Este 0 995.1 0.3 64
2019-04-04 20:00:00 13.8 9 Sudeste 17 Sudeste 0 995.1 0.2 61
2019-04-04 19:00:00 14.6 12 Sudeste 23 Sudeste 0 994.9 -0.3 57
2019-04-04 18:00:00 15.9 10 Sudeste 25 Sudeste 0 994.8 -0.8 52
2019-04-04 17:00:00 16.2 10 Sudeste 25 Sudeste 0 994.9 -1.1 51
2019-04-04 16:00:00 16.3 13 Sudeste 27 Sur 0 995.2 -0.8 52
2019-04-04 15:00:00 16.3 12 Sudeste 26 Sudeste 0 995.6 -0.4 53
2019-04-04 14:00:00 16.5 12 Sudeste 26 Sudeste 0 996 0.6 52
2019-04-04 13:00:00 16.8 12 Sudeste 24 Sur 0 996 0.9 52
2019-04-04 12:00:00 15.9 13 Sudeste 24 Sudeste 0 996 1.3 54
2019-04-04 11:00:00 15.5 9 Sur 19 Sudoeste 0 995.4 1.3 56
2019-04-04 10:00:00 14.5 5 Sur 12 Sudoeste 0 995.1 1.5 62
2019-04-04 09:00:00 12.2 4 Oeste 9 Oeste 0 994.7 1.8 77
2019-04-04 08:00:00 11.2 2 Sudoeste 10 Nordeste 0 994.1 1.5 75
2019-04-04 07:00:00 11.8 5 Este 18 Este 0 993.6 1.2 70
2019-04-04 06:00:00 12.3 8 Este 19 Nordeste 0 992.9 0.6 70
2019-04-04 05:00:00 12.4 7 Nordeste 24 Nordeste 0 992.6 0.4 75
2019-04-04 04:00:00 12.5 13 Nordeste 24 Nordeste 0 992.4 0.1 74
2019-04-04 03:00:00 12.8 10 Nordeste 19 Nordeste 0 992.3 0.5 78
2019-04-04 02:00:00 13.2 3 Oeste 21 Este 0 992.2 0.6 84
2019-04-04 01:00:00 14.3 6 Este 20 Este 0 992.3 1.1 88
2019-04-04 00:00:00 14.5 4 Oeste 10 Sudoeste 0 991.8 0.8 75
2019-04-03 23:00:00 14.7 5 Norte 10 Norte 0 991.6 0.8 87
2019-04-03 22:00:00 15.4 0 Calma 10 Nordeste 0 991.2 0.3 83
2019-04-03 21:00:00 16.1 6 Nordeste 13 Nordeste 0 991 -0.4 81
2019-04-03 20:00:00 17.6 7 Sudeste 13 Sudeste 0 990.8 -1.4 75
2019-04-03 19:00:00 20.3 6 Sur 26 Sur 0 990.9 -2.5 61
2019-04-03 18:00:00 20.9 13 Sur 30 Sur 0 991.4 -3.1 58
2019-04-03 17:00:00 22.1 18 Sur 31 Sur 0 992.2 -3.1 48
2019-04-03 16:00:00 21.5 19 Sur 31 Sur 0 993.4 -2.9 51
2019-04-03 15:00:00 19.9 19 Sur 33 Sur 0 994.5 -3 58
2019-04-03 14:00:00 21.8 15 Sur 26 Sur 0 995.3 -2.8 51
2019-04-03 13:00:00 22.3 10 Sur 24 Oeste 0 996.3 -2.5 52
2019-04-03 12:00:00 22 11 Oeste 23 Oeste 0 997.5 -1.8 42
2019-04-03 11:00:00 20.2 8 Oeste 18 Oeste 0 998.1 -1.4 46
2019-04-03 10:00:00 16.7 3 Sudoeste 7 Noroeste 0 998.8 -1 69
2019-04-03 09:00:00 12.6 4 Noroeste 7 Oeste 0 999.3 -0.6 90
2019-04-03 08:00:00 10.3 4 Noroeste 8 Noroeste 0 999.5 -1 95
2019-04-03 07:00:00 10.4 4 Oeste 7 Norte 0 999.8 -1.6 96
2019-04-03 06:00:00 10.8 3 Noroeste 5 Norte 0 999.9 -2.2 96
2019-04-03 05:00:00 11.4 3 Oeste 8 Noroeste 0 1000.5 -2.1 94
2019-04-03 04:00:00 12 4 Noroeste 8 Sudoeste 0 1001.4 -2.1 94
2019-04-03 03:00:00 12.3 4 Sur 12 Sudoeste 0 1002.1 -1.8 94
2019-04-03 02:00:00 12.8 3 Oeste 9 Noroeste 0 1002.6 -1.6 92
2019-04-03 01:00:00 13.8 4 Oeste 10 Norte 0 1003.5 -0.6 94
2019-04-03 00:00:00 14.2 6 Norte 13 Norte 0.4 1003.9 0.3 94
2019-04-02 23:00:00 14.5 8 Sudeste 19 Oeste 4.4 1004.2 1.1 86
2019-04-02 22:00:00 15 8 Nordeste 15 Este 0 1004.1 1.3 90
2019-04-02 21:00:00 15.8 6 Este 12 Nordeste 0 1003.6 0.4 84
2019-04-02 20:00:00 17.3 7 Sudeste 11 Sudeste 0 1003.1 -0.3 77
2019-04-02 19:00:00 18.4 8 Sudeste 17 Sudeste 0 1002.8 -0.9 72
2019-04-02 18:00:00 19.6 6 Este 18 Sur 0 1003.2 -1.1 65
2019-04-02 17:00:00 19.1 13 Sur 23 Sudeste 0 1003.4 -1.7 69
2019-04-02 16:00:00 19.2 15 Sur 26 Sur 0 1003.7 -2.3 72
2019-04-02 15:00:00 21.2 13 Sur 26 Sur 0 1004.3 -2 62
2019-04-02 14:00:00 20.8 13 Sur 25 Sudeste 0 1005.1 -1.3 62
2019-04-02 13:00:00 20.4 12 Sudeste 21 Sudeste 0 1006 -0.4 63
2019-04-02 12:00:00 19.7 9 Sur 18 Sur 0 1006.3 0 56
2019-04-02 11:00:00 17.6 7 Sudoeste 14 Sudoeste 0 1006.4 0.4 66
2019-04-02 10:00:00 15.2 5 Sur 9 Sur 0 1006.4 0.5 79
2019-04-02 09:00:00 12.7 3 Oeste 7 Sudoeste 0 1006.3 0.2 92
2019-04-02 08:00:00 12.1 4 Sudoeste 9 Sudoeste 0 1006 -0.2 92
2019-04-02 07:00:00 12.4 3 Sudoeste 8 Oeste 0 1005.9 -0.6 90
2019-04-02 06:00:00 12.2 5 Sudoeste 9 Sudoeste 0 1006.1 -1.1 92
2019-04-02 05:00:00 12.3 3 Oeste 5 Oeste 0 1006.2 -1.2 92
2019-04-02 04:00:00 12.7 3 Sudoeste 9 Oeste 0 1006.5 -1.2 90
2019-04-02 03:00:00 12.7 4 Oeste 8 Oeste 0 1007.2 -0.4 93
2019-04-02 02:00:00 12.5 0 Calma 5 Oeste 0 1007.4 -0.3 93
2019-04-02 01:00:00 12.7 3 Noroeste 4 Noroeste 0 1007.7 0.3 91
2019-04-02 00:00:00 13.5 0 Calma 8 Sudeste 0 1007.6 0.9 88
2019-04-01 23:00:00 14.1 4 Sudeste 11 Sudeste 0 1007.7 1.7 87
2019-04-01 22:00:00 14.2 6 Sudeste 14 Sudeste 0 1007.4 2 88
2019-04-01 21:00:00 14.3 8 Sudeste 17 Sudeste 0 1006.7 1.7 87
2019-04-01 20:00:00 14.7 7 Sudeste 16 Sudeste 0 1006 1.1 82
2019-04-01 19:00:00 15.3 8 Este 19 Este 0 1005.4 0.4 81
2019-04-01 18:00:00 16.3 7 Este 21 Este 0 1005 -0.2 76
2019-04-01 17:00:00 17.3 10 Sudeste 23 Sudeste 0 1004.9 -0.7 73
2019-04-01 16:00:00 17.4 10 Sudeste 17 Sudeste 0 1005 -0.9 65
2019-04-01 15:00:00 17.5 8 Sur 13 Sur 0 1005.2 -0.7 73
2019-04-01 14:00:00 16.8 5 Sur 11 Sudoeste 0 1005.6 0.2 77
2019-04-01 13:00:00 15.4 4 Sudoeste 8 Sudoeste 0 1005.9 1.3 85
2019-04-01 12:00:00 14.1 0 Calma 5 Nordeste 0 1005.9 2.2 93
2019-04-01 11:00:00 13.5 3 Nordeste 10 Nordeste 0 1005.4 2 94
2019-04-01 10:00:00 13.5 0 Calma 5 Norte 0 1004.6 1.7 93
2019-04-01 09:00:00 13.1 4 Noroeste 9 Noroeste 0 1003.7 0.8 95
2019-04-01 08:00:00 12.5 4 Noroeste 10 Oeste 0 1003.4 0.4 97
2019-04-01 07:00:00 12.4 4 Oeste 9 Noroeste 0 1002.9 0 97
2019-04-01 06:00:00 12.4 5 Noroeste 8 Noroeste 0.2 1002.9 -0.1 97
2019-04-01 05:00:00 12.4 5 Nordeste 11 Nordeste 0.6 1003 -0.2 97
2019-04-01 04:00:00 12.5 8 Este 18 Nordeste 0.4 1002.9 -0.2 97
2019-04-01 03:00:00 12.8 2 Sur 10 Nordeste 0 1003 0 96
2019-04-01 02:00:00 12.8 6 Nordeste 19 Sudeste 0.6 1003.2 0.4 96
2019-04-01 01:00:00 13.1 6 Nordeste 18 Nordeste 0 1003.1 0.8 94
2019-04-01 00:00:00 13.1 11 Nordeste 21 Norte 0.8 1003 1.5 94
2019-03-31 23:00:00 13.5 4 Este 16 Nordeste 0.4 1002.8 1.5 92
2019-03-31 22:00:00 13.8 5 Nordeste 18 Este 0 1002.3 1.2 90
2019-03-31 21:00:00 13.8 5 Este 9 Nordeste 0 1001.5 0.4 92
2019-03-31 20:00:00 14.1 0 Calma 7 Oeste 0.2 1001.3 0.3 91
2019-03-31 19:00:00 14.3 5 Oeste 8 Oeste 0.2 1001.1 -0.3 92
2019-03-31 18:00:00 14.8 3 Sudoeste 7 Sudoeste 0 1001.1 -1.1 89
2019-03-31 17:00:00 14.6 5 Sudeste 12 Sudeste 0 1001 -2.1 92
2019-03-31 16:00:00 14.6 3 Oeste 10 Noroeste 0.6 1001.4 -2.5 92
2019-03-31 15:00:00 14.2 6 Noroeste 21 Nordeste 1.6 1002.2 -2 93
2019-03-31 14:00:00 13.4 15 Nordeste 30 Nordeste 1.4 1003.1 -1.1 93
2019-03-31 13:00:00 13.7 3 Sudeste 10 Sudeste 1 1003.9 -0.2 91
2019-03-31 12:00:00 13 0 Calma 5 Sudoeste 1.2 1004.2 0.4 90
2019-03-31 11:00:00 12.2 3 Oeste 10 Sudoeste 1.6 1004.2 0.3 94
2019-03-31 10:00:00 11.7 6 Sudoeste 11 Sudoeste 1.4 1004.1 -0.2 93
2019-03-31 09:00:00 11.5 3 Sudoeste 10 Nordeste 0.8 1003.8 -1 93
2019-03-31 08:00:00 11 5 Norte 13 Norte 1 1003.9 -1.8 92
2019-03-31 07:00:00 10.7 6 Norte 12 Norte 2.2 1004.3 -2.7 91
2019-03-31 06:00:00 11.1 6 Nordeste 15 Nordeste 0.4 1004.8 -3.2 81
2019-03-31 05:00:00 11.7 5 Norte 13 Norte 0.2 1005.7 -2.6 80
2019-03-31 03:00:00 12.5 4 Sudoeste 9 Oeste 0 1008 -0.6 74
2019-03-31 01:00:00 12.3 4 Oeste 10 Noroeste 0 1008.3 -0.7 76
2019-03-31 00:00:00 12.5 4 Noroeste 9 Sudeste 0 1008.4 -0.9 74
2019-03-30 23:00:00 12.8 5 Sudeste 8 Sudeste 0 1008.6 -0.4 73
2019-03-30 22:00:00 13 4 Nordeste 10 Este 0 1009 -0.5 73
2019-03-30 21:00:00 13.5 6 Este 28 Este 0 1009.3 0 72
2019-03-30 20:00:00 13.7 13 Este 32 Nordeste 0 1009 0.3 73
2019-03-30 19:00:00 13.9 14 Este 32 Este 0 1009.5 0.2 72
2019-03-30 18:00:00 14.5 17 Este 35 Este 0 1009.3 -0.8 69
2019-03-30 17:00:00 15.9 19 Este 38 Este 0 1008.7 -2.3 63
2019-03-30 16:00:00 16.4 21 Este 35 Este 0 1009.3 -2.8 62
2019-03-30 15:00:00 16.5 18 Este 35 Nordeste 0 1010.1 -2.7 59
2019-03-30 14:00:00 16.7 17 Este 34 Este 0 1011 -2.2 57
2019-03-30 13:00:00 17 13 Este 28 Nordeste 0 1012.1 -1.1 57
2019-03-30 12:00:00 17 12 Este 24 Este 0 1012.8 -0.5 51
2019-03-30 11:00:00 16 8 Este 19 Nordeste 0 1013.2 -0.5 52
2019-03-30 10:00:00 15.6 8 Nordeste 17 Nordeste 0 1013.2 -0.2 48
2019-03-30 09:00:00 12.4 2 Norte 10 Noroeste 0 1013.3 0.2 57
2019-03-30 08:00:00 9.1 4 Noroeste 11 Oeste 0 1013.7 0.5 67
2019-03-30 07:00:00 6.8 4 Oeste 7 Noroeste 0 1013.4 -0.4 72
2019-03-30 06:00:00 7 4 Noroeste 9 Norte 0 1013.1 -1 71
2019-03-30 05:00:00 7.4 4 Norte 10 Norte 0 1013.2 -1.5 70
2019-03-30 04:00:00 7.5 5 Noroeste 8 Noroeste 0 1013.8 -1.7 70
2019-03-30 03:00:00 8.3 3 Noroeste 9 Norte 0 1014.1 -1.7 70
2019-03-30 02:00:00 8.7 4 Norte 8 Norte 0 1014.7 -1.2 70
2019-03-30 01:00:00 9 4 Noroeste 7 Norte 0 1015.5 -0.4 72
2019-03-30 00:00:00 9.4 3 Norte 5 Norte 0 1015.8 0.2 73
2019-03-29 23:00:00 10.5 3 Noroeste 6 Norte 0 1015.9 1 74
2019-03-29 22:00:00 12.1 2 Norte 13 Este 0 1015.9 1 73
2019-03-29 21:00:00 13 7 Este 17 Nordeste 0 1015.6 0.9 72
2019-03-29 20:00:00 13.4 7 Nordeste 23 Nordeste 0 1014.9 -0.1 67
2019-03-29 19:00:00 14 9 Este 28 Nordeste 0 1014.9 -0.3 66
2019-03-29 18:00:00 14.9 13 Este 29 Este 0 1014.7 -1 60
2019-03-29 17:00:00 15.3 15 Este 32 Nordeste 0 1015 -1.5 60
2019-03-29 16:00:00 16.1 15 Este 33 Nordeste 0 1015.2 -1.8 51
2019-03-29 15:00:00 16.5 15 Este 31 Nordeste 0 1015.7 -2.1 54
2019-03-29 14:00:00 16.6 17 Nordeste 34 Nordeste 0 1016.5 -1.5 51
2019-03-29 13:00:00 16.4 17 Este 37 Este 0 1017 -0.8 51
2019-03-29 12:00:00 16.3 13 Este 28 Nordeste 0 1017.8 0.5 53
2019-03-29 11:00:00 15.9 17 Nordeste 31 Este 0 1018 0.6 55
2019-03-29 10:00:00 15.8 14 Nordeste 29 Nordeste 0 1017.8 0.7 58
2019-03-29 09:00:00 14 6 Nordeste 13 Nordeste 0 1017.3 0.3 58
2019-03-29 08:00:00 9.3 9 Nordeste 14 Nordeste 0 1017.4 0.7 57
2019-03-29 07:00:00 7.3 7 Norte 11 Norte 0 1017.1 0.3 59
2019-03-29 06:00:00 7.5 2 Noroeste 9 Norte 0 1017 -0.1 57
2019-03-29 05:00:00 8.4 5 Norte 11 Norte 0 1016.7 -0.6 51
2019-03-29 04:00:00 8.6 6 Norte 14 Nordeste 0 1016.8 -0.9 50
2019-03-29 03:00:00 8.3 8 Nordeste 11 Nordeste 0 1017.1 -0.8 55
2019-03-29 02:00:00 8.5 5 Norte 10 Norte 0 1017.3 -0.6 61
2019-03-29 01:00:00 8.9 4 Norte 10 Norte 0 1017.7 -0.2 68
2019-03-29 00:00:00 9.5 4 Norte 10 Norte 0 1017.9 0 72
2019-03-28 23:00:00 10.3 5 Norte 10 Nordeste 0 1017.9 0.5 78
2019-03-28 22:00:00 11.7 4 Norte 8 Norte 0 1017.9 0.7 77
2019-03-28 21:00:00 12.5 4 Este 7 Este 0 1017.9 0.9 76
2019-03-28 20:00:00 13.1 4 Nordeste 14 Este 0 1017.4 0.6 74
2019-03-28 19:00:00 14 9 Este 22 Este 0 1017.2 0.5 69
2019-03-28 18:00:00 15.2 12 Este 23 Este 0 1017 -0.1 62
2019-03-28 17:00:00 16.1 14 Sudeste 22 Sudeste 0 1016.8 -0.8 55
2019-03-28 16:00:00 16.6 13 Sudeste 28 Sudeste 0 1016.7 -1.2 53
2019-03-28 15:00:00 17.3 9 Este 25 Sudeste 0 1017.1 -0.9 50
2019-03-28 14:00:00 17.8 14 Sudeste 28 Sudeste 0 1017.6 -0.5 38
2019-03-28 13:00:00 17.7 14 Sudeste 29 Sudeste 0 1017.9 0 50
2019-03-28 12:00:00 17.9 12 Sudeste 23 Sudeste 0 1018 0.3 27
2019-03-28 11:00:00 18.5 12 Este 25 Este 0 1018.1 0.7 21
2019-03-28 10:00:00 17.4 6 Sur 10 Sudeste 0 1017.9 0.7 20
2019-03-28 09:00:00 12.9 3 Oeste 7 Oeste 0 1017.7 0.9 32
2019-03-28 08:00:00 7.7 3 Noroeste 5 Noroeste 0 1017.4 0.8 45
2019-03-28 07:00:00 5.7 3 Noroeste 8 Noroeste 0 1017.2 0.5 55
2019-03-28 06:00:00 5.9 4 Noroeste 7 Noroeste 0 1016.8 0 56
2019-03-28 05:00:00 6 4 Noroeste 9 Noroeste 0 1016.6 -0.5 57
2019-03-28 04:00:00 6.5 5 Noroeste 10 Oeste 0 1016.7 -0.6 55
2019-03-28 03:00:00 6.8 4 Noroeste 8 Noroeste 0 1016.8 -0.4 55
2019-03-28 02:00:00 7.3 4 Noroeste 7 Noroeste 0 1017.1 0.3 57
2019-03-28 01:00:00 8.5 5 Norte 9 Norte 0 1017.3 1 62
2019-03-28 00:00:00 8.7 3 Norte 6 Norte 0 1017.2 1.5 69
2019-03-27 23:00:00 10.3 4 Norte 6 Norte 0 1016.8 2 73
2019-03-27 22:00:00 11.8 5 Nordeste 10 Este 0 1016.3 2 70
2019-03-27 21:00:00 12.8 7 Nordeste 21 Este 0 1015.7 2 69
2019-03-27 20:00:00 13.4 12 Este 28 Este 0 1014.8 1.5 64
2019-03-27 19:00:00 14.3 14 Este 32 Este 0 1014.3 0.9 58
2019-03-27 18:00:00 15.9 15 Este 41 Este 0 1013.7 0.5 46
2019-03-27 17:00:00 16.8 15 Este 42 Este 0 1013.3 -0.2 38
2019-03-27 16:00:00 16.8 25 Este 49 Este 0 1013.4 -0.5 44
2019-03-27 15:00:00 17.5 21 Este 45 Este 0 1013.2 -0.9 42
2019-03-27 14:00:00 17.6 17 Este 41 Nordeste 0 1013.5 -0.8 39
2019-03-27 13:00:00 17.1 18 Este 36 Este 0 1013.9 -0.4 37
2019-03-27 12:00:00 17.2 15 Este 34 Este 0 1014.1 0 38
2019-03-27 11:00:00 16.4 18 Este 30 Nordeste 0 1014.3 0.3 40
2019-03-27 10:00:00 15.6 15 Este 31 Nordeste 0 1014.3 0.7 43
2019-03-27 09:00:00 14.5 12 Nordeste 24 Nordeste 0 1014.1 0.7 44
2019-03-27 08:00:00 9.3 4 Noroeste 9 Norte 0 1014 0.8 49
2019-03-27 07:00:00 6.3 4 Noroeste 6 Norte 0 1013.6 0.4 61
2019-03-27 06:00:00 7 2 Noroeste 6 Nordeste 0 1013.4 -0.3 58
2019-03-27 05:00:00 7.9 4 Noroeste 8 Norte 0 1013.2 -0.9 54
2019-03-27 04:00:00 8.5 5 Norte 9 Norte 0 1013.2 -1 52
2019-03-27 03:00:00 9.1 5 Norte 9 Norte 0 1013.7 0.1 52
2019-03-27 02:00:00 11.4 6 Nordeste 19 Este 0 1014.1 0.7 54
2019-03-27 01:00:00 10.3 5 Nordeste 11 Nordeste 0 1014.2 1 49
2019-03-27 00:00:00 10.7 5 Nordeste 16 Nordeste 0 1013.6 0.8 49
2019-03-26 23:00:00 11.5 9 Nordeste 19 Nordeste 0 1013.4 1.6 58
2019-03-26 22:00:00 12.2 9 Nordeste 27 Este 0 1013.2 2.3 61
2019-03-26 21:00:00 12.6 9 Nordeste 36 Nordeste 0 1012.8 2.7 65
2019-03-26 20:00:00 13.1 18 Este 40 Este 0 1011.8 2 64
2019-03-26 19:00:00 14.2 16 Este 40 Este 0 1010.9 1.4 59
2019-03-26 18:00:00 15.4 19 Este 47 Este 0 1010.1 0.3 49
2019-03-26 17:00:00 16.2 21 Este 45 Este 0 1009.8 -0.1 50
2019-03-26 16:00:00 16.6 24 Este 46 Este 0 1009.5 -0.6 64
2019-03-26 15:00:00 17.4 18 Este 53 Este 0 1009.8 -0.5 60
2019-03-26 14:00:00 17.8 26 Este 48 Este 0 1009.9 -0.6 53
2019-03-26 13:00:00 18.1 19 Este 47 Este 0 1010.1 -0.2 54
2019-03-26 12:00:00 17.3 23 Este 46 Nordeste 0 1010.3 0.7 54
2019-03-26 11:00:00 17.1 23 Este 42 Nordeste 0 1010.5 1.6 51
2019-03-26 10:00:00 17.1 19 Este 36 Este 0 1010.3 1.9 55
2019-03-26 09:00:00 14.8 3 Sudeste 9 Noroeste 0 1009.6 1.9 38
2019-03-26 08:00:00 9.8 4 Oeste 8 Oeste 0 1008.9 1.5 50
2019-03-26 07:00:00 7.4 4 Noroeste 9 Oeste 0 1008.4 1 57
2019-03-26 06:00:00 7.1 4 Oeste 7 Oeste 0 1007.7 0.1 57
2019-03-26 05:00:00 8 4 Norte 8 Norte 0 1007.4 -0.7 58
2019-03-26 04:00:00 8.7 5 Norte 10 Norte 0 1007.4 -0.9 56
2019-03-26 03:00:00 7.9 3 Noroeste 6 Noroeste 0 1007.6 -1 59
2019-03-26 02:00:00 8.7 4 Noroeste 7 Oeste 0 1008.1 -0.4 56
2019-03-26 01:00:00 9.3 3 Noroeste 6 Noroeste 0 1008.3 -0.2 65
2019-03-26 00:00:00 10 3 Noroeste 5 Noroeste 0 1008.6 0.2 60
2019-03-25 23:00:00 11.4 2 Norte 10 Norte 0 1008.5 0.3 63
2019-03-25 22:00:00 12.8 5 Norte 7 Norte 0 1008.5 0.6 67
2019-03-25 21:00:00 14.2 4 Nordeste 8 Nordeste 0 1008.4 0.9 65
2019-03-25 20:00:00 15.2 5 Este 10 Nordeste 0 1008.2 0.4 61
2019-03-25 19:00:00 16.9 4 Sudeste 12 Sudeste 0 1007.9 -0.5 57
2019-03-25 18:00:00 18.3 6 Sudeste 17 Nordeste 0 1007.5 -1.5 46
2019-03-25 17:00:00 19.3 9 Este 17 Este 0 1007.8 -1.8 43
2019-03-25 16:00:00 20.5 9 Este 20 Este 0 1008.4 -2 35
2019-03-25 15:00:00 21.3 9 Sudeste 20 Nordeste 0 1009 -2.1 39
2019-03-25 14:00:00 21.6 9 Sudeste 19 Sudeste 0 1009.6 -2 36
2019-03-25 13:00:00 20.6 9 Sudeste 16 Este 0 1010.4 -1.2 38
2019-03-25 12:00:00 20.4 6 Sudeste 14 Sudeste 0 1011.1 -0.1 37
2019-03-25 11:00:00 19.9 9 Sudeste 18 Nordeste 0 1011.6 0.6 37
2019-03-25 10:00:00 18.9 3 Este 8 Este 0 1011.6 0.8 38
2019-03-25 09:00:00 14.2 0 Calma 6 Norte 0 1011.2 0.5 41
2019-03-25 08:00:00 9 4 Noroeste 7 Noroeste 0 1011 0.4 54
2019-03-25 07:00:00 7.4 3 Oeste 8 Noroeste 0 1010.8 0 57
2019-03-25 06:00:00 7.5 3 Oeste 8 Noroeste 0 1010.7 -0.6 57
2019-03-25 05:00:00 7.9 4 Noroeste 6 Noroeste 0 1010.6 -1 57
2019-03-25 04:00:00 8.2 3 Noroeste 5 Noroeste 0 1010.8 -1.4 59
2019-03-25 03:00:00 8.8 3 Noroeste 6 Noroeste 0 1011.3 -1.4 56
2019-03-25 02:00:00 9.3 4 Noroeste 6 Norte 0 1011.6 -1.3 64
2019-03-25 01:00:00 10.2 4 Noroeste 6 Norte 0 1012.2 -0.6 62
2019-03-25 00:00:00 10.8 4 Noroeste 5 Norte 0 1012.7 0.2 59